Time;durP1;ratioP1;P1;durP2;ratioP2;P2;SDS_P1;SDS_P2;PMS_P1;PMS_P2;Temp;Humidity;BMP_temperature;BMP_pressure;BME280_temperature;BME280_humidity;BME280_pressure;Samples;Min_cycle;Max_cycle;Signal;HPM_P1;HPM_P2
2023/01/20 00:01:37;;;;;;;30.30;18.10;;;;;;;5.58;81.71;101197.79;106908;1259;60867;-90
2023/01/20 00:04:04;;;;;;;35.00;20.10;;;;;;;5.55;81.77;101197.86;106135;1263;60209;-91
2023/01/20 00:06:32;;;;;;;32.90;19.30;;;;;;;5.53;81.69;101197.59;106695;1260;72532;-91
2023/01/20 00:09:00;;;;;;;31.00;19.40;;;;;;;5.51;81.73;101195.91;107324;1259;64055;-89
2023/01/20 00:11:30;;;;;;;28.30;18.80;;;;;;;5.50;81.71;101199.58;106004;1262;73548;-94
2023/01/20 00:13:59;;;;;;;27.70;17.80;;;;;;;5.49;81.52;101195.27;105868;1259;61667;-92
2023/01/20 00:16:27;;;;;;;26.50;18.20;;;;;;;5.50;81.59;101192.48;105997;1264;60038;-92
2023/01/20 00:18:54;;;;;;;30.80;18.10;;;;;;;5.51;81.43;101187.40;106250;1258;72575;-91
2023/01/20 00:21:21;;;;;;;30.70;18.60;;;;;;;5.51;81.34;101186.86;106267;1263;64230;-91
2023/01/20 00:23:48;;;;;;;30.30;19.10;;;;;;;5.51;81.15;101185.14;105872;1263;74193;-90
2023/01/20 00:26:17;;;;;;;31.10;19.60;;;;;;;5.51;81.01;101185.30;105988;1263;61098;-91
2023/01/20 00:28:45;;;;;;;30.00;17.80;;;;;;;5.50;80.87;101184.84;105929;1259;60209;-91
2023/01/20 00:31:16;;;;;;;33.20;18.40;;;;;;;5.48;80.71;101181.77;105797;1263;73924;-90
2023/01/20 00:33:44;;;;;;;31.90;19.00;;;;;;;5.45;80.54;101183.94;105748;1258;63798;-93
2023/01/20 00:36:11;;;;;;;31.10;17.40;;;;;;;5.44;80.70;101181.58;106697;1260;72937;-91
2023/01/20 00:38:40;;;;;;;25.90;16.80;;;;;;;5.43;80.31;101177.95;106089;1259;61180;-90
2023/01/20 00:41:08;;;;;;;28.20;18.10;;;;;;;5.43;80.34;101178.95;106824;1263;60384;-90
2023/01/20 00:43:35;;;;;;;30.10;18.30;;;;;;;5.46;80.34;101180.98;106527;1259;73154;-93
2023/01/20 00:46:03;;;;;;;32.20;18.40;;;;;;;5.45;80.28;101175.80;106084;1261;64761;-92
2023/01/20 00:48:31;;;;;;;35.40;19.80;;;;;;;5.43;80.11;101173.07;107097;1259;73835;-90
2023/01/20 00:50:58;;;;;;;28.20;18.70;;;;;;;5.44;79.86;101170.80;106924;1261;60623;-93
2023/01/20 00:53:25;;;;;;;30.70;16.90;;;;;;;5.42;79.87;101181.10;107197;1259;61175;-91
2023/01/20 00:55:52;;;;;;;30.50;18.90;;;;;;;5.40;79.88;101180.61;106559;1259;73646;-92
2023/01/20 00:58:20;;;;;;;29.10;17.40;;;;;;;5.39;79.81;101183.06;107489;1258;65217;-91
2023/01/20 01:00:50;;;;;;;29.50;19.50;;;;;;;5.38;79.82;101188.48;107756;1258;72533;-90
2023/01/20 01:03:17;;;;;;;26.50;18.10;;;;;;;5.39;79.93;101196.08;106002;1259;62454;-93
2023/01/20 01:05:45;;;;;;;27.30;17.00;;;;;;;5.39;79.74;101197.98;106031;1259;61338;-93
2023/01/20 01:08:12;;;;;;;28.00;18.20;;;;;;;5.41;79.57;101195.68;106652;1259;73833;-91
2023/01/20 01:10:39;;;;;;;29.90;18.60;;;;;;;5.41;79.60;101192.22;107539;1259;63772;-90
2023/01/20 01:13:07;;;;;;;28.70;18.50;;;;;;;5.42;79.42;101187.69;106383;1258;72695;-90
2023/01/20 01:15:35;;;;;;;27.70;19.20;;;;;;;5.42;79.40;101184.39;105685;1260;60651;-93
2023/01/20 01:18:03;;;;;;;34.20;19.90;;;;;;;5.42;79.19;101180.58;105800;1259;61358;-92
2023/01/20 01:20:30;;;;;;;29.90;18.10;;;;;;;5.41;79.15;101177.48;105672;1259;72739;-93
2023/01/20 01:22:57;;;;;;;33.80;19.90;;;;;;;5.40;79.25;101171.26;105613;1264;64791;-91
2023/01/20 01:25:24;;;;;;;28.90;18.00;;;;;;;5.40;79.14;101175.42;105777;1258;72547;-94
2023/01/20 01:27:51;;;;;;;27.30;17.30;;;;;;;5.40;79.15;101174.53;105642;1264;62270;-94
2023/01/20 01:30:19;;;;;;;31.50;18.90;;;;;;;5.43;79.03;101177.27;105748;1259;61323;-93
2023/01/20 01:32:46;;;;;;;31.40;18.00;;;;;;;5.43;78.81;101174.47;105795;1259;73041;-94
2023/01/20 01:35:14;;;;;;;28.80;19.70;;;;;;;5.43;78.79;101177.41;105734;1261;64863;-95
2023/01/20 01:37:46;;;;;;;31.60;17.80;;;;;;;5.43;78.69;101173.07;105791;1259;73536;-92
2023/01/20 01:40:13;;;;;;;34.00;18.90;;;;;;;5.42;78.60;101177.44;105734;1264;61167;-93
2023/01/20 01:42:40;;;;;;;35.60;19.60;;;;;;;5.40;78.25;101177.14;105887;1264;60446;-92
2023/01/20 01:45:09;;;;;;;28.50;18.30;;;;;;;5.39;78.13;101174.77;105970;1259;72826;-92
2023/01/20 01:47:49;;;;;;;35.90;19.40;;;;;;;5.37;78.27;101184.17;106235;1259;63676;-91
2023/01/20 01:50:25;;;;;;;28.20;18.80;;;;;;;5.35;78.14;101183.02;107710;1258;72700;-91
2023/01/20 01:52:52;;;;;;;;;;;;;;;5.35;77.91;101182.67;106533;1259;60991;-94
2023/01/20 01:55:25;;;;;;;31.30;19.50;;;;;;;5.34;78.02;101190.69;106983;1259;60027;-94
2023/01/20 01:57:52;;;;;;;33.70;20.90;;;;;;;5.34;77.91;101193.82;105852;1259;74050;-90
2023/01/20 02:00:19;;;;;;;28.10;18.20;;;;;;;5.34;77.71;101191.71;106224;1259;64039;-94
2023/01/20 02:02:48;;;;;;;31.20;17.70;;;;;;;5.35;77.57;101185.27;106545;1259;72835;-92
2023/01/20 02:05:15;;;;;;;28.90;17.80;;;;;;;5.34;77.45;101185.30;106207;1260;59931;-93
2023/01/20 02:07:44;;;;;;;31.60;20.20;;;;;;;5.32;77.41;101189.16;106167;1258;60208;-92
2023/01/20 02:10:15;;;;;;;31.50;17.30;;;;;;;5.31;77.51;101185.92;107241;1259;73059;-94
2023/01/20 02:12:46;;;;;;;30.10;18.50;;;;;;;5.29;77.52;101181.98;107485;1258;63486;-92
2023/01/20 02:15:14;;;;;;;26.30;16.60;;;;;;;5.28;77.36;101182.70;108874;1258;71512;-92
2023/01/20 02:18:02;;;;;;;29.00;17.60;;;;;;;5.27;77.47;101173.55;106275;1260;61701;-93
2023/01/20 02:20:42;;;;;;;31.50;18.40;;;;;;;5.28;77.40;101166.08;105953;1259;60235;-91
2023/01/20 02:23:15;;;;;;;24.90;17.40;;;;;;;5.28;77.38;101155.30;107009;1258;73715;-92
2023/01/20 02:25:51;;;;;;;27.40;17.10;;;;;;;5.28;77.33;101155.81;106049;1259;63732;-92
2023/01/20 02:29:04;;;;;;;27.60;17.80;;;;;;;5.29;77.12;101162.91;106231;1260;72191;-94
2023/01/20 02:31:49;;;;;;;28.70;17.40;;;;;;;5.27;76.80;101173.02;107377;1259;60485;-89
2023/01/20 02:34:25;;;;;;;27.10;15.90;;;;;;;5.25;76.89;101175.00;109138;1259;61837;-92
2023/01/20 02:37:03;;;;;;;30.10;18.20;;;;;;;5.24;76.77;101177.29;109010;1258;73412;-89
2023/01/20 02:39:49;;;;;;;25.20;16.30;;;;;;;5.22;76.69;101177.16;106955;1263;63903;-90
2023/01/20 02:42:27;;;;;;;27.20;16.10;;;;;;;5.20;76.74;101172.18;108155;1259;74228;-92
2023/01/20 02:45:02;;;;;;;23.00;14.70;;;;;;;5.20;76.45;101175.47;108399;1261;60344;-92
2023/01/20 02:47:33;;;;;;;29.50;17.20;;;;;;;5.22;76.46;101173.87;109101;1261;60254;-92
2023/01/20 02:50:08;;;;;;;27.70;16.30;;;;;;;5.25;76.55;101173.79;109020;1260;73534;-92
2023/01/20 02:52:40;;;;;;;26.80;16.50;;;;;;;5.27;76.31;101175.63;108881;1259;64235;-92
2023/01/20 02:55:09;;;;;;;26.10;16.80;;;;;;;5.26;76.23;101168.54;109124;1259;72363;-92
2023/01/20 02:57:39;;;;;;;24.90;15.90;;;;;;;5.25;76.05;101166.34;109200;1259;58201;-91
2023/01/20 03:00:11;;;;;;;28.40;17.60;;;;;;;5.24;76.14;101166.54;108940;1262;60387;-92
2023/01/20 03:02:38;;;;;;;21.20;14.80;;;;;;;5.24;76.17;101171.05;109002;1262;73795;-92
2023/01/20 03:05:11;;;;;;;27.50;17.10;;;;;;;5.23;75.97;101168.48;106994;1262;64726;-91
2023/01/20 03:07:39;;;;;;;27.80;16.10;;;;;;;5.23;76.09;101167.95;107079;1262;72470;-92
2023/01/20 03:10:08;;;;;;;30.50;15.70;;;;;;;5.22;75.93;101170.05;106643;1261;60373;-91
2023/01/20 03:12:50;;;;;;;24.70;16.20;;;;;;;5.22;75.93;101174.55;106498;1262;60589;-90
2023/01/20 03:15:20;;;;;;;25.60;15.70;;;;;;;5.22;75.76;101176.80;105758;1262;73814;-93
2023/01/20 03:17:47;;;;;;;26.80;15.90;;;;;;;5.22;75.83;101178.56;107177;1262;64725;-92
2023/01/20 03:20:15;;;;;;;24.70;15.70;;;;;;;5.20;75.89;101182.08;108791;1262;72770;-92
2023/01/20 03:22:42;;;;;;;29.50;16.90;;;;;;;5.16;75.61;101184.24;108581;1262;60089;-91
2023/01/20 03:25:10;;;;;;;27.10;16.60;;;;;;;5.14;75.85;101187.10;108993;1262;60481;-92
2023/01/20 03:27:37;;;;;;;27.50;16.60;;;;;;;5.11;75.53;101183.71;108978;1262;73802;-93
2023/01/20 03:30:15;;;;;;;23.10;14.90;;;;;;;5.09;75.83;101191.91;108093;1261;64004;-89
2023/01/20 03:32:44;;;;;;;26.30;16.30;;;;;;;5.08;76.00;101191.92;107997;1259;72773;-91
2023/01/20 03:35:14;;;;;;;20.40;15.20;;;;;;;5.08;75.69;101198.00;107192;1261;60455;-94
2023/01/20 03:37:43;;;;;;;28.50;16.20;;;;;;;5.08;75.87;101200.94;107855;1259;60183;-91
2023/01/20 03:50:18;;;;;;;26.00;15.70;;;;;;;5.04;74.88;101193.43;107996;1263;58906;-93
2023/01/20 03:52:54;;;;;;;28.70;17.90;;;;;;;5.02;74.63;101187.62;106430;1270;62970;-93
2023/01/20 03:55:29;;;;;;;28.30;16.30;;;;;;;5.00;74.73;101184.70;107092;1270;74940;-92
2023/01/20 03:58:05;;;;;;;24.70;14.60;;;;;;;4.98;74.44;101184.75;107543;1270;65071;-90
2023/01/20 04:00:53;;;;;;;25.60;14.10;;;;;;;4.98;74.35;101180.44;108074;1270;73716;-93
2023/01/20 04:03:26;;;;;;;28.60;15.10;;;;;;;4.94;74.07;101176.38;105825;1272;60435;-93
2023/01/20 04:05:54;;;;;;;24.00;15.00;;;;;;;4.91;74.20;101174.39;106082;1270;60370;-93
2023/01/20 04:08:21;;;;;;;23.40;14.60;;;;;;;4.89;74.39;101175.13;106495;1270;74444;-94
2023/01/20 04:10:49;;;;;;;30.20;16.80;;;;;;;4.88;74.09;101169.27;107298;1270;63671;-94
2023/01/20 04:13:16;;;;;;;25.70;15.20;;;;;;;4.87;74.14;101177.80;106327;1270;73550;-94
2023/01/20 04:15:44;;;;;;;24.20;14.40;;;;;;;4.85;74.06;101171.44;107232;1270;61221;-92
2023/01/20 04:18:14;;;;;;;23.80;14.80;;;;;;;4.85;73.97;101172.48;108309;1270;60347;-91
2023/01/20 04:20:43;;;;;;;25.50;15.10;;;;;;;4.86;74.11;101178.17;108245;1270;74542;-91
2023/01/20 04:23:38;;;;;;;24.00;14.20;;;;;;;4.86;73.93;101182.99;107754;1270;64923;-92
2023/01/20 04:26:06;;;;;;;;;;;;;;;4.87;73.84;101189.74;107301;1270;72399;-93
2023/01/20 04:28:33;;;;;;;25.40;16.10;;;;;;;4.87;73.78;101189.56;107124;1270;59550;-93
2023/01/20 04:31:00;;;;;;;28.70;17.60;;;;;;;4.86;73.42;101197.91;107620;1270;60599;-93
2023/01/20 04:33:37;;;;;;;29.80;16.10;;;;;;;4.86;73.47;101199.11;106848;1270;76722;-93
2023/01/20 04:36:05;;;;;;;28.20;17.40;;;;;;;4.85;73.26;101196.73;107746;1270;63620;-94
2023/01/20 04:38:32;;;;;;;33.50;17.60;;;;;;;4.83;73.27;101200.42;108407;1270;72490;-93
2023/01/20 04:41:10;;;;;;;30.40;16.90;;;;;;;4.82;73.21;101205.14;108081;1270;61576;-96
2023/01/20 04:43:37;;;;;;;32.70;18.50;;;;;;;4.81;73.01;101200.66;107477;1270;61254;-94
2023/01/20 04:46:05;;;;;;;32.20;20.20;;;;;;;4.76;73.07;101199.73;106495;1276;73760;-93
2023/01/20 04:48:32;;;;;;;32.10;19.00;;;;;;;4.76;73.23;101195.91;105947;1270;64933;-92
2023/01/20 04:51:26;;;;;;;28.00;17.00;;;;;;;4.79;73.14;101195.34;105784;1270;72548;-95
2023/01/20 04:53:59;;;;;;;27.20;16.40;;;;;;;4.77;73.03;101205.41;106591;1276;60984;-95
2023/01/20 04:56:27;;;;;;;27.00;17.10;;;;;;;4.76;72.75;101199.91;106594;1270;61059;-95
2023/01/20 04:58:54;;;;;;;30.80;18.30;;;;;;;4.73;72.71;101203.79;106320;1273;73695;-94
2023/01/20 05:01:21;;;;;;;25.50;16.10;;;;;;;4.69;72.71;101208.06;107740;1270;64239;-94
2023/01/20 05:03:49;;;;;;;31.30;17.20;;;;;;;4.65;72.95;101214.59;107705;1273;73007;-93
2023/01/20 05:06:20;;;;;;;27.70;17.20;;;;;;;4.60;72.86;101217.30;107654;1273;61403;-92
2023/01/20 05:08:48;;;;;;;30.50;17.60;;;;;;;4.57;73.21;101222.75;108027;1273;61517;-94
2023/01/20 05:11:15;;;;;;;26.10;15.90;;;;;;;4.55;73.22;101228.33;107927;1273;73886;-91
2023/01/20 05:13:43;;;;;;;29.70;16.90;;;;;;;4.52;73.39;101228.05;108141;1273;63791;-89
2023/01/20 05:16:11;;;;;;;25.70;16.00;;;;;;;4.49;73.32;101236.79;106393;1273;71680;-94
2023/01/20 05:18:39;;;;;;;32.50;18.70;;;;;;;4.47;73.47;101240.64;106681;1273;59324;-94
2023/01/20 05:21:07;;;;;;;28.40;17.60;;;;;;;4.47;73.32;101244.12;105838;1273;61433;-94
2023/01/20 05:23:34;;;;;;;27.60;18.30;;;;;;;4.45;73.28;101246.58;106321;1273;73734;-92
2023/01/20 05:26:02;;;;;;;26.40;15.20;;;;;;;4.43;73.22;101247.34;107696;1273;65247;-93
2023/01/20 05:28:29;;;;;;;27.60;17.70;;;;;;;4.40;73.44;101247.23;107631;1273;71599;-94
2023/01/20 05:30:58;;;;;;;28.30;15.70;;;;;;;4.38;73.41;101251.61;105610;1281;60703;-94
2023/01/20 05:33:25;;;;;;;30.20;18.20;;;;;;;4.35;73.45;101247.89;105675;1280;61019;-94
2023/01/20 05:35:53;;;;;;;31.30;17.30;;;;;;;4.35;73.46;101258.08;106331;1273;73626;-94
2023/01/20 05:38:22;;;;;;;27.00;17.00;;;;;;;4.35;73.58;101259.46;106218;1273;64380;-95
2023/01/20 05:40:58;;;;;;;29.20;14.80;;;;;;;4.34;73.38;101259.13;106064;1273;73700;-93
2023/01/20 05:43:26;;;;;;;26.30;16.10;;;;;;;4.38;73.47;101263.40;106690;1273;60543;-94
2023/01/20 05:45:53;;;;;;;30.70;18.60;;;;;;;4.37;73.31;101258.38;108022;1271;60452;-96
2023/01/20 05:48:27;;;;;;;31.30;16.80;;;;;;;4.40;73.22;101272.33;107956;1279;73709;-93
2023/01/20 05:50:54;;;;;;;31.90;17.70;;;;;;;4.40;73.02;101276.50;108406;1272;63720;-93
2023/01/20 05:53:22;;;;;;;34.80;19.20;;;;;;;4.43;73.08;101292.70;107997;1273;72429;-94
2023/01/20 05:56:00;;;;;;;32.30;17.10;;;;;;;4.44;72.95;101299.25;108119;1271;58242;-93
2023/01/20 05:58:33;;;;;;;30.30;16.50;;;;;;;4.45;72.91;101304.24;108398;1273;60456;-95
2023/01/20 06:04:55;;;;;;;31.90;18.70;;;;;;;4.49;72.57;101327.52;108537;1267;64493;-91
2023/01/20 06:08:10;;;;;;;29.60;16.70;;;;;;;4.52;72.93;101328.84;108411;1270;72691;-92
2023/01/20 06:11:52;;;;;;;29.90;16.80;;;;;;;4.58;73.01;101343.40;108393;1269;59409;-93
2023/01/20 06:14:56;;;;;;;26.70;17.40;;;;;;;4.69;73.20;101350.27;108563;1270;59879;-92
2023/01/20 06:17:55;;;;;;;32.40;16.70;;;;;;;4.79;72.81;101347.42;107756;1270;73608;-92
2023/01/20 06:21:23;;;;;;;28.60;17.00;;;;;;;4.85;72.40;101350.74;107956;1270;65288;-95
2023/01/20 06:24:30;;;;;;;30.10;18.70;;;;;;;4.93;72.23;101357.64;108639;1270;71487;-92
2023/01/20 06:27:28;;;;;;;31.80;18.60;;;;;;;4.97;71.66;101354.24;107968;1270;60440;-95
2023/01/20 06:30:24;;;;;;;36.30;19.60;;;;;;;4.97;71.53;101353.20;108112;1270;60179;-92
2023/01/20 06:33:09;;;;;;;31.80;18.40;;;;;;;4.97;71.40;101353.89;107624;1270;73614;-94
2023/01/20 06:35:43;;;;;;;33.60;19.50;;;;;;;4.96;71.13;101352.36;108005;1270;64572;-93
2023/01/20 06:38:15;;;;;;;32.10;18.10;;;;;;;4.93;70.85;101354.52;108585;1270;71344;-94
2023/01/20 06:42:12;;;;;;;34.20;19.10;;;;;;;4.92;70.82;101351.25;108422;1267;59833;-95
2023/01/20 06:45:53;;;;;;;36.90;20.00;;;;;;;4.97;70.85;101352.15;108694;1269;58936;-93
2023/01/20 06:56:19;;;;;;;32.10;17.90;;;;;;;5.08;70.32;101348.59;105493;1264;71834;-93
2023/01/20 07:33:55;;;;;;;34.00;20.90;;;;;;;5.87;67.73;101343.53;108448;1265;61362;-95
2023/01/20 07:37:42;;;;;;;34.90;21.20;;;;;;;5.92;67.51;101343.37;107991;1263;59274;31
2023/01/20 07:41:18;;;;;;;36.80;21.60;;;;;;;5.96;67.55;101346.41;108406;1264;73842;-91
2023/01/20 07:45:08;;;;;;;32.70;18.70;;;;;;;6.13;67.28;101352.70;108329;1267;62467;-95
2023/01/20 07:52:03;;;;;;;32.40;18.40;;;;;;;6.33;66.39;101351.76;108513;1267;59486;-92
2023/01/20 07:54:47;;;;;;;30.40;18.90;;;;;;;6.43;66.23;101360.65;108407;1273;60244;-95
2023/01/20 07:57:49;;;;;;;30.80;18.30;;;;;;;6.52;65.56;101356.89;108289;1273;72555;-93
2023/01/20 08:05:35;;;;;;;35.10;18.90;;;;;;;6.72;65.05;101356.61;104006;1267;71618;-92
2023/01/20 08:12:27;;;;;;;31.10;18.50;;;;;;;6.87;64.44;101365.34;108727;1267;58350;-95
2023/01/20 08:16:54;;;;;;;35.90;19.70;;;;;;;6.94;64.03;101363.17;108396;1263;74113;31
2023/01/20 08:24:53;;;;;;;33.90;19.80;;;;;;;6.94;63.21;101358.33;108671;1269;73066;-94
2023/01/20 08:28:24;;;;;;;34.80;19.80;;;;;;;6.89;62.70;101364.41;107368;1283;58691;-94
2023/01/20 08:31:28;;;;;;;32.50;18.60;;;;;;;6.82;62.75;101358.70;107182;1282;59599;-94
2023/01/20 08:38:39;;;;;;;36.10;19.90;;;;;;;6.83;62.95;101361.30;108469;1261;65155;31
2023/01/20 08:42:12;;;;;;;35.50;18.80;;;;;;;6.83;62.77;101357.81;108326;1267;72299;-94
2023/01/20 08:46:06;;;;;;;36.10;21.20;;;;;;;6.84;63.02;101358.10;108540;1267;60995;-94
2023/01/20 08:50:09;;;;;;;41.30;22.60;;;;;;;6.90;62.90;101351.88;108376;1265;59276;-92
2023/01/20 08:57:07;;;;;;;37.90;20.70;;;;;;;7.06;61.78;101346.97;108669;1270;63938;-94
2023/01/20 09:00:05;;;;;;;34.90;21.00;;;;;;;7.12;62.10;101341.05;108489;1270;71492;-93
2023/01/20 09:09:48;;;;;;;38.70;20.40;;;;;;;7.41;60.29;101326.64;108500;1266;72267;-94
2023/01/20 09:12:30;;;;;;;36.80;21.10;;;;;;;7.51;60.17;101332.00;108178;1269;64393;-93
2023/01/20 09:15:53;;;;;;;32.60;18.60;;;;;;;7.66;59.21;101328.89;108560;1270;71854;-94
2023/01/20 09:18:32;;;;;;;36.90;22.10;;;;;;;7.71;58.69;101324.00;108616;1270;59904;-93
2023/01/20 09:21:07;;;;;;;28.10;17.70;;;;;;;7.77;58.21;101321.02;108550;1268;59999;-91
2023/01/20 09:23:37;;;;;;;32.40;17.90;;;;;;;7.83;57.11;101317.81;108246;1269;75049;-92
2023/01/20 09:26:11;;;;;;;35.30;18.00;;;;;;;7.85;56.42;101315.64;108673;1269;64964;-91
2023/01/20 09:28:45;;;;;;;;;;;;;;;7.84;56.37;101312.54;108729;1270;71843;-90
2023/01/20 09:35:40;;;;;;;25.60;16.50;;;;;;;7.93;55.29;101313.42;100979;1261;58829;31
2023/01/20 09:53:52;;;;;;;;;;;;;;;;;;;;;
2023/01/20 09:57:07;;;;;;;30.60;18.00;;;;;;;8.36;54.14;101305.33;108586;1270;73919;-94
2023/01/20 10:01:19;;;;;;;28.50;17.10;;;;;;;8.44;54.24;101302.44;108475;1266;64257;-91
2023/01/20 13:55:28;;;;;;;30.30;20.60;;;;;;;6.70;68.91;101198.05;106693;1285;612537;-89
2023/01/20 13:58:15;;;;;;;40.40;22.50;;;;;;;6.70;68.93;101199.60;107898;1269;97922;-88
2023/01/20 14:00:42;;;;;;;36.20;22.20;;;;;;;6.64;69.06;101197.20;108292;1260;61790;-90
2023/01/20 14:03:33;;;;;;;36.70;21.60;;;;;;;6.54;69.13;101193.18;106958;1262;73556;-90
2023/01/20 14:06:04;;;;;;;43.40;24.60;;;;;;;6.45;69.33;101197.31;107288;1261;65854;-91
2023/01/20 14:08:44;;;;;;;37.80;22.40;;;;;;;6.37;69.84;101200.35;107602;1257;73744;-89
2023/01/20 14:11:15;;;;;;;37.40;20.80;;;;;;;6.31;69.74;101202.80;108020;1257;63343;-90
2023/01/20 14:14:00;;;;;;;38.00;20.20;;;;;;;6.26;70.20;101202.98;107415;1257;61239;-90
2023/01/20 14:16:35;;;;;;;35.60;21.30;;;;;;;6.17;70.30;101202.06;106979;1257;72583;-88
2023/01/20 14:19:22;;;;;;;34.40;22.30;;;;;;;6.11;70.79;101201.91;107115;1260;65939;-89
2023/01/20 14:21:53;;;;;;;41.40;22.20;;;;;;;6.04;70.93;101197.77;107727;1257;75072;-89
2023/01/20 14:24:45;;;;;;;43.20;23.30;;;;;;;5.98;71.11;101195.20;108117;1258;60389;-90
2023/01/20 14:27:15;;;;;;;56.70;26.70;;;;;;;5.91;71.00;101195.92;106941;1263;61090;-88
2023/01/20 14:29:45;;;;;;;47.10;27.70;;;;;;;5.80;71.14;101191.73;108060;1257;74818;-90
2023/01/20 14:32:33;;;;;;;58.80;29.50;;;;;;;5.70;71.58;101193.96;106865;1257;64723;-90
2023/01/20 14:35:00;;;;;;;48.70;25.50;;;;;;;5.59;71.66;101200.54;107067;1256;74409;-91
2023/01/20 14:37:33;;;;;;;39.10;20.30;;;;;;;5.50;71.92;101206.34;106279;1257;62276;-91
2023/01/20 14:40:19;;;;;;;34.10;19.20;;;;;;;5.42;71.77;101203.98;106911;1257;62119;-90
2023/01/20 14:43:00;;;;;;;27.10;17.90;;;;;;;5.36;72.07;101202.56;106908;1257;75040;-91
2023/01/20 14:45:31;;;;;;;39.20;18.70;;;;;;;5.33;72.02;101204.05;108784;1257;65570;-90
2023/01/20 14:48:12;;;;;;;36.80;20.00;;;;;;;5.27;71.78;101207.52;108705;1257;74033;-91
2023/01/20 14:50:55;;;;;;;41.60;23.30;;;;;;;5.19;71.62;101212.77;106739;1257;61236;-91
2023/01/20 14:53:23;;;;;;;34.80;20.80;;;;;;;5.11;71.79;101212.14;106774;1258;61258;-90
2023/01/20 14:56:06;;;;;;;33.50;20.00;;;;;;;5.04;72.14;101217.18;107006;1257;75553;-89
2023/01/20 14:58:35;;;;;;;38.60;19.90;;;;;;;4.96;72.23;101223.45;107572;1258;65350;-88
2023/01/20 15:01:05;;;;;;;32.70;18.90;;;;;;;4.87;72.32;101217.64;108555;1257;73511;-90
2023/01/20 15:03:32;;;;;;;29.10;18.50;;;;;;;4.79;72.73;101215.59;107180;1257;62126;-89
2023/01/20 15:06:09;;;;;;;42.00;21.40;;;;;;;4.74;72.73;101225.77;107093;1257;62068;-89
2023/01/20 15:08:44;;;;;;;40.80;21.50;;;;;;;4.67;73.17;101228.73;107717;1257;73728;-90
2023/01/20 15:11:30;;;;;;;39.80;21.40;;;;;;;4.62;73.20;101232.16;106754;1259;65838;-90
2023/01/20 15:14:07;;;;;;;42.10;25.20;;;;;;;4.58;73.38;101238.30;106666;1257;74400;-87
2023/01/20 15:16:34;;;;;;;44.70;25.60;;;;;;;4.49;73.42;101240.42;106234;1263;61223;-89
2023/01/20 15:19:21;;;;;;;44.80;25.70;;;;;;;4.41;73.74;101242.55;106456;1259;61224;-89
2023/01/20 15:21:55;;;;;;;40.70;24.20;;;;;;;4.30;73.73;101245.05;106724;1257;72263;-89
2023/01/20 15:24:27;;;;;;;52.00;27.50;;;;;;;4.23;74.13;101248.16;106436;1261;65204;-88
2023/01/20 15:26:59;;;;;;;49.80;23.30;;;;;;;4.16;74.44;101246.92;106641;1261;74718;-90
2023/01/20 15:29:27;;;;;;;45.60;26.60;;;;;;;4.10;74.38;101250.70;106824;1257;61700;-89
2023/01/20 15:31:56;;;;;;;45.00;26.20;;;;;;;4.05;74.67;101245.11;106941;1259;59664;-90
2023/01/20 15:34:23;;;;;;;48.80;26.20;;;;;;;4.03;74.61;101242.75;107137;1257;73044;-90
2023/01/20 15:36:52;;;;;;;44.70;25.50;;;;;;;3.99;74.50;101248.18;106781;1257;64738;-88
2023/01/20 15:39:21;;;;;;;55.10;27.50;;;;;;;3.91;74.53;101240.92;106814;1260;73579;-90
2023/01/20 15:41:53;;;;;;;52.20;27.90;;;;;;;3.84;74.58;101252.86;106431;1263;60872;-89
2023/01/20 15:44:23;;;;;;;51.60;27.40;;;;;;;3.77;74.51;101254.55;106566;1260;61385;-92
2023/01/20 15:46:53;;;;;;;52.20;26.90;;;;;;;3.72;74.69;101257.77;106734;1257;75198;-87
2023/01/20 15:49:24;;;;;;;53.80;27.20;;;;;;;3.67;74.86;101260.30;107468;1258;65120;-89
2023/01/20 15:51:55;;;;;;;56.60;29.40;;;;;;;3.64;75.00;101259.50;108798;1258;73844;-89
2023/01/20 15:54:27;;;;;;;63.00;30.60;;;;;;;3.60;75.01;101257.00;107664;1259;60469;-90
2023/01/20 15:56:57;;;;;;;65.10;32.20;;;;;;;3.58;75.12;101262.55;107243;1258;61222;-90
2023/01/20 15:59:24;;;;;;;61.90;29.90;;;;;;;3.54;75.11;101260.73;107338;1259;75321;-91
2023/01/20 16:01:56;;;;;;;60.10;29.60;;;;;;;3.48;75.22;101251.88;108577;1257;63700;-91
2023/01/20 16:04:30;;;;;;;64.10;32.20;;;;;;;3.41;75.11;101259.45;108484;1257;72997;-88
2023/01/20 16:07:00;;;;;;;60.30;28.30;;;;;;;3.36;75.20;101250.73;109003;1257;62278;-90
2023/01/20 16:09:32;;;;;;;61.30;29.70;;;;;;;3.32;75.38;101256.68;109144;1257;61211;-89
2023/01/20 16:12:13;;;;;;;50.20;25.30;;;;;;;3.25;75.33;101246.46;109332;1257;73661;-90
2023/01/20 16:14:48;;;;;;;58.30;31.50;;;;;;;3.25;75.78;101259.23;108405;1262;64716;-91
2023/01/20 16:17:29;;;;;;;59.60;30.50;;;;;;;3.22;75.66;101256.18;108425;1257;75126;-90
2023/01/20 16:20:26;;;;;;;60.80;29.60;;;;;;;3.19;75.79;101257.10;107894;1257;59675;-89
2023/01/20 16:22:58;;;;;;;58.20;31.10;;;;;;;3.15;75.86;101255.98;108627;1257;60936;-92
2023/01/20 16:25:37;;;;;;;62.80;31.10;;;;;;;3.12;75.83;101256.38;108132;1261;73962;-89
2023/01/20 16:28:20;;;;;;;54.00;28.10;;;;;;;3.09;75.75;101262.64;107723;1257;65913;-88
2023/01/20 16:30:47;;;;;;;55.00;27.30;;;;;;;3.04;75.79;101257.58;107745;1257;73537;-90
2023/01/20 16:33:25;;;;;;;47.50;26.70;;;;;;;2.98;76.03;101250.60;107236;1260;63506;-90
2023/01/20 16:35:53;;;;;;;54.90;26.50;;;;;;;2.96;76.15;101249.95;107234;1261;60165;-89
2023/01/20 16:38:23;;;;;;;59.50;30.30;;;;;;;2.94;76.25;101252.91;106939;1260;74834;-90
2023/01/20 16:40:54;;;;;;;53.40;28.10;;;;;;;2.90;76.23;101248.66;107177;1261;65380;-88
2023/01/20 16:43:21;;;;;;;57.10;30.00;;;;;;;2.87;76.15;101246.30;108426;1262;73384;-90
2023/01/20 16:45:54;;;;;;;57.50;28.70;;;;;;;2.83;76.25;101236.52;107714;1262;60825;-90
2023/01/20 16:48:27;;;;;;;58.70;30.20;;;;;;;2.81;76.48;101242.61;107089;1262;61217;-86
2023/01/20 16:51:03;;;;;;;52.10;25.60;;;;;;;2.78;76.45;101239.56;107050;1263;74058;-91
2023/01/20 16:53:32;;;;;;;54.30;24.30;;;;;;;2.76;76.70;101241.50;107098;1262;65049;-88
2023/01/20 16:56:00;;;;;;;49.00;23.00;;;;;;;2.72;76.63;101237.60;107417;1262;75502;-88
2023/01/20 16:58:27;;;;;;;39.10;21.10;;;;;;;2.68;76.87;101236.63;107425;1262;62683;-87
2023/01/20 17:00:56;;;;;;;46.00;24.60;;;;;;;2.64;76.92;101234.29;107197;1262;61059;-89
2023/01/20 17:03:29;;;;;;;51.10;26.00;;;;;;;2.62;77.24;101233.10;107474;1262;73223;-88
2023/01/20 17:05:58;;;;;;;49.80;23.70;;;;;;;2.59;77.03;101227.11;107410;1267;64534;-88
2023/01/20 17:08:28;;;;;;;50.60;23.90;;;;;;;2.56;77.38;101236.13;107363;1262;75029;-89
2023/01/20 17:10:57;;;;;;;49.00;23.30;;;;;;;2.52;77.40;101224.65;107554;1262;61033;-90
2023/01/20 17:13:29;;;;;;;45.90;23.20;;;;;;;2.51;77.44;101229.16;107278;1266;61742;-88
2023/01/20 17:15:58;;;;;;;43.20;22.10;;;;;;;2.47;77.67;101228.70;106703;1262;74299;-89
2023/01/20 17:18:30;;;;;;;43.10;22.60;;;;;;;2.45;77.90;101229.24;107501;1259;66338;-87
2023/01/20 17:21:05;;;;;;;49.10;23.50;;;;;;;2.43;78.06;101224.27;107485;1257;74707;-88
2023/01/20 17:23:34;;;;;;;49.70;23.80;;;;;;;2.42;78.12;101225.51;107372;1257;61727;-86
2023/01/20 17:26:05;;;;;;;45.20;22.50;;;;;;;2.42;78.29;101227.73;107546;1258;62086;-89
2023/01/20 17:28:33;;;;;;;44.40;22.30;;;;;;;2.41;78.31;101229.65;107888;1257;75067;-88
2023/01/20 17:31:01;;;;;;;47.30;25.40;;;;;;;2.40;78.55;101232.79;107850;1257;64918;-90
2023/01/20 17:33:29;;;;;;;41.40;21.70;;;;;;;2.39;78.60;101230.71;108313;1257;74400;-89
2023/01/20 17:35:58;;;;;;;46.10;26.60;;;;;;;2.39;78.52;101232.11;109052;1259;61816;-88
2023/01/20 17:38:29;;;;;;;40.10;20.20;;;;;;;2.38;78.68;101233.15;108207;1257;61395;-90
2023/01/20 17:41:01;;;;;;;48.70;22.90;;;;;;;2.36;78.61;101222.50;107335;1258;74351;-89